Time;durP1;ratioP1;P1;durP2;ratioP2;P2;SDS_P1;SDS_P2;PMS_P1;PMS_P2;Temp;Humidity;BMP_temperature;BMP_pressure;BME280_temperature;BME280_humidity;BME280_pressure;Samples;Min_cycle;Max_cycle;Signal;HPM_P1;HPM_P2
2022/04/27 00:01:36;;;;;;;13.43;7.67;;;;;;;11.88;100.00;62070.22;5114191;28;20206;-71
2022/04/27 00:04:02;;;;;;;15.50;6.93;;;;;;;11.93;100.00;62075.59;5113891;28;20199;-72
2022/04/27 00:06:29;;;;;;;15.37;6.47;;;;;;;11.88;100.00;62075.31;5113945;28;20702;-73
2022/04/27 00:08:56;;;;;;;13.53;7.40;;;;;;;11.93;100.00;62075.59;5113841;28;20245;-73
2022/04/27 00:11:24;;;;;;;23.90;10.13;;;;;;;11.65;100.00;62050.63;5113568;28;20206;-72
2022/04/27 00:13:51;;;;;;;21.57;10.97;;;;;;;11.70;100.00;62050.91;5113563;28;20252;-72
2022/04/27 00:16:18;;;;;;;20.83;9.60;;;;;;;11.65;100.00;62058.81;5113613;28;20248;-71
2022/04/27 00:18:46;;;;;;;17.20;9.13;;;;;;;11.73;100.00;62056.69;5113572;28;20244;-72
2022/04/27 00:21:13;;;;;;;16.60;9.17;;;;;;;11.85;100.00;62067.53;5113946;28;20599;-72
2022/04/27 00:23:39;;;;;;;17.07;6.13;;;;;;;11.80;100.00;62061.63;5113563;28;20199;-73
2022/04/27 00:26:06;;;;;;;14.27;6.13;;;;;;;11.91;100.00;62072.91;5113377;28;20323;-72
2022/04/27 00:28:34;;;;;;;9.77;5.17;;;;;;;11.74;100.00;62057.75;5113128;28;20756;-72
2022/04/27 00:31:03;;;;;;;9.17;4.33;;;;;;;11.74;100.00;62055.75;5113394;28;20231;-73
2022/04/27 00:33:29;;;;;;;8.73;4.20;;;;;;;11.79;100.00;62061.09;5113328;28;20290;-72
2022/04/27 00:35:56;;;;;;;7.67;4.07;;;;;;;11.66;100.00;62049.16;5110790;28;20252;-71
2022/04/27 00:38:23;;;;;;;7.03;4.07;;;;;;;11.42;100.00;62025.97;5107466;28;20256;-72
2022/04/27 00:40:49;;;;;;;16.73;9.50;;;;;;;11.48;100.00;62027.28;5113038;28;20622;-72
2022/04/27 00:43:36;;;;;;;32.53;14.00;;;;;;;11.31;100.00;62012.16;5113282;28;20326;-73
2022/04/27 00:46:04;;;;;;;35.40;17.33;;;;;;;10.97;100.00;61976.25;5113082;28;20326;-71
2022/04/27 00:48:30;;;;;;;47.30;20.37;;;;;;;11.42;100.00;62020.88;5113120;28;20226;-71
2022/04/27 00:51:00;;;;;;;43.00;21.27;;;;;;;11.34;100.00;62015.38;5112902;28;20244;-73
2022/04/27 00:53:27;;;;;;;61.60;27.70;;;;;;;11.38;100.00;62016.56;5113151;28;20199;-72
2022/04/27 00:55:54;;;;;;;63.17;28.47;;;;;;;11.35;100.00;62018.47;5112657;28;20541;-74
2022/04/27 00:58:23;;;;;;;71.77;26.67;;;;;;;11.36;100.00;62017.53;5113355;28;20267;-72
2022/04/27 01:00:52;;;;;;;37.83;15.43;;;;;;;11.34;100.00;62012.28;5112896;28;20260;-72
2022/04/27 01:03:19;;;;;;;35.00;16.37;;;;;;;11.14;100.00;61995.94;5112828;28;20252;-72
2022/04/27 01:05:47;;;;;;;71.33;29.10;;;;;;;11.19;100.00;62001.31;5112532;28;20203;-73
2022/04/27 01:08:15;;;;;;;74.40;28.07;;;;;;;11.14;100.00;61990.84;5112794;28;20195;-74
2022/04/27 01:10:44;;;;;;;55.47;24.70;;;;;;;10.50;100.00;61923.34;5112673;28;20199;-73
2022/04/27 01:13:12;;;;;;;20.93;10.57;;;;;;;11.34;100.00;62009.75;5112691;28;20275;-72
2022/04/27 01:15:39;;;;;;;6.23;4.00;;;;;;;11.40;100.00;62023.81;5112499;28;20586;-73
2022/04/27 01:18:08;;;;;;;26.00;12.33;;;;;;;11.47;100.00;62026.75;5112410;28;20255;-72
2022/04/27 01:20:38;;;;;;;20.20;9.30;;;;;;;10.86;100.00;61961.91;5112616;28;20214;-73
2022/04/27 01:23:06;;;;;;;15.50;7.30;;;;;;;11.22;100.00;61999.41;5112603;28;20197;-73
2022/04/27 01:25:50;;;;;;;5.13;3.60;;;;;;;11.30;100.00;62011.09;5112421;28;20653;-72
2022/04/27 01:28:19;;;;;;;7.10;3.60;;;;;;;11.29;100.00;62006.94;5112237;28;20665;-72
2022/04/27 01:30:46;;;;;;;9.70;3.50;;;;;;;11.27;100.00;62005.31;5111986;28;20199;-72
2022/04/27 01:33:13;;;;;;;13.37;6.13;;;;;;;11.33;100.00;62016.31;5111143;28;20197;-72
2022/04/27 01:35:42;;;;;;;8.93;5.67;;;;;;;11.36;100.00;62014.44;5112334;28;20199;-71
2022/04/27 01:38:09;;;;;;;11.40;5.80;;;;;;;11.34;100.00;62012.28;5112428;28;20655;-72
2022/04/27 01:40:36;;;;;;;10.40;4.63;;;;;;;11.39;100.00;62018.19;5111991;28;20207;-72
2022/04/27 01:43:03;;;;;;;3.73;3.33;;;;;;;11.47;100.00;62033.88;5111663;28;20237;-72
2022/04/27 01:45:30;;;;;;;12.37;7.33;;;;;;;11.45;100.00;62026.66;5112149;28;20624;-72
2022/04/27 01:47:57;;;;;;;10.13;6.33;;;;;;;11.33;100.00;62014.28;5111956;28;20210;-72
2022/04/27 01:50:24;;;;;;;22.57;11.23;;;;;;;11.30;100.00;62008.00;5112069;28;20222;-72
2022/04/27 01:55:37;;;;;;;42.00;19.23;;;;;;;11.29;100.00;62006.94;5111993;28;20813;-72
2022/04/27 01:58:03;;;;;;;40.97;16.80;;;;;;;11.29;100.00;62009.50;5111646;28;20218;-72
2022/04/27 02:00:30;;;;;;;17.30;8.60;;;;;;;11.18;100.00;61995.13;5110717;28;20199;-71
2022/04/27 02:02:57;;;;;;;10.73;6.00;;;;;;;11.42;100.00;62023.41;5111727;28;20199;-71
2022/04/27 02:05:24;;;;;;;8.77;5.00;;;;;;;11.10;100.00;61984.00;5112118;28;20199;-71
2022/04/27 02:07:52;;;;;;;8.20;4.70;;;;;;;11.39;100.00;62022.75;5111735;28;20199;-71
2022/04/27 02:10:19;;;;;;;8.00;3.67;;;;;;;11.36;100.00;62016.97;5111662;28;20234;-72
2022/04/27 02:12:46;;;;;;;7.83;3.60;;;;;;;11.25;100.00;62002.66;5111645;28;20251;-71
2022/04/27 02:15:12;;;;;;;6.40;3.20;;;;;;;11.30;100.00;62008.53;5111667;28;20195;-71
2022/04/27 02:17:39;;;;;;;4.63;3.27;;;;;;;11.34;100.00;62014.84;5111896;28;20202;-71
2022/04/27 02:20:07;;;;;;;4.10;2.97;;;;;;;11.34;100.00;62012.81;5111668;28;20191;-73
2022/04/27 02:22:34;;;;;;;3.60;3.00;;;;;;;11.25;100.00;62002.66;5111645;28;20264;-71
2022/04/27 02:25:04;;;;;;;5.70;3.23;;;;;;;11.36;100.00;62014.44;5111709;28;20194;-72
2022/04/27 02:27:30;;;;;;;6.33;3.53;;;;;;;11.13;100.00;61992.34;5111757;28;20583;-72
2022/04/27 02:29:57;;;;;;;6.57;3.33;;;;;;;11.34;100.00;62012.28;5111714;28;20226;-71
2022/04/27 02:32:25;;;;;;;4.83;3.50;;;;;;;11.04;100.00;61981.22;5111637;28;20234;-71
2022/04/27 02:34:53;;;;;;;5.20;3.23;;;;;;;11.33;100.00;62016.84;5111566;28;20230;-73
2022/04/27 02:37:20;;;;;;;5.60;3.33;;;;;;;11.12;100.00;61993.81;5111581;28;20199;-74
2022/04/27 02:39:47;;;;;;;12.47;6.00;;;;;;;10.93;100.00;61966.88;5111691;28;20195;-72
2022/04/27 02:42:16;;;;;;;16.80;7.10;;;;;;;10.77;100.00;61949.72;5111580;28;20194;-73
2022/04/27 02:44:43;;;;;;;11.47;5.80;;;;;;;10.77;100.00;61956.81;5111313;28;20669;-72
2022/04/27 02:47:09;;;;;;;12.13;5.60;;;;;;;10.66;100.00;61945.59;5106787;28;20199;-72
2022/04/27 02:52:22;;;;;;;18.97;7.60;;;;;;;10.70;100.00;61947.31;5091615;28;20198;-72
2022/04/27 02:54:48;;;;;;;18.70;8.50;;;;;;;10.64;100.00;61937.81;5094789;28;20650;-73
2022/04/27 02:57:17;;;;;;;16.67;7.87;;;;;;;10.69;100.00;61940.59;5094948;28;20195;-71
2022/04/27 02:59:44;;;;;;;14.80;7.00;;;;;;;10.68;100.00;61942.63;5094647;28;20294;-72
2022/04/27 03:02:10;;;;;;;12.13;5.20;;;;;;;10.79;100.00;61954.41;5094834;28;20249;-73
2022/04/27 03:04:38;;;;;;;16.70;5.90;;;;;;;10.71;100.00;61943.28;5094598;28;20249;-72
2022/04/27 03:07:05;;;;;;;11.27;6.60;;;;;;;10.24;100.00;61895.50;5094736;28;20644;-72
2022/04/27 03:09:31;;;;;;;9.13;5.07;;;;;;;10.92;100.00;61972.91;5094493;28;20724;-71
2022/04/27 03:11:58;;;;;;;6.50;4.23;;;;;;;10.87;100.00;61962.97;5094524;28;20200;-74
2022/04/27 03:14:28;;;;;;;9.10;4.33;;;;;;;10.29;100.00;61900.84;5094397;28;20256;-72
2022/04/27 03:16:56;;;;;;;7.20;4.83;;;;;;;10.91;100.00;61966.72;5094123;28;20207;-72
2022/04/27 03:19:23;;;;;;;7.30;4.50;;;;;;;10.86;100.00;61964.47;5094814;28;20203;-72
2022/04/27 03:21:51;;;;;;;6.63;4.80;;;;;;;10.94;100.00;61975.59;5094171;28;20219;-72
2022/04/27 03:24:18;;;;;;;7.73;4.30;;;;;;;11.00;100.00;61978.94;5094497;28;20195;-72
2022/04/27 03:26:47;;;;;;;11.10;5.20;;;;;;;11.02;100.00;61981.63;5094172;28;20735;-71
2022/04/27 03:29:14;;;;;;;11.07;5.50;;;;;;;11.00;100.00;61979.47;5094306;28;20280;-72
2022/04/27 03:31:42;;;;;;;11.00;6.23;;;;;;;11.03;100.00;61985.22;5094034;28;20261;-74
2022/04/27 03:34:08;;;;;;;8.53;6.67;;;;;;;10.94;100.00;61975.59;5094118;28;20196;-71
2022/04/27 03:36:35;;;;;;;14.40;8.30;;;;;;;10.97;100.00;61973.16;5094270;28;20204;-71
2022/04/27 03:39:02;;;;;;;12.83;7.33;;;;;;;10.93;100.00;61971.97;5093981;28;20200;-72
2022/04/27 03:41:29;;;;;;;13.20;8.37;;;;;;;10.95;100.00;61971.56;5093890;28;20670;-72
2022/04/27 03:43:56;;;;;;;14.53;7.50;;;;;;;11.07;100.00;61988.44;5093724;28;20294;-71
2022/04/27 03:46:23;;;;;;;10.23;4.87;;;;;;;11.04;100.00;61978.66;5107480;28;20640;-73
2022/04/27 03:48:52;;;;;;;6.57;4.77;;;;;;;11.09;100.00;61980.41;5114197;28;20190;-73
2022/04/27 03:51:18;;;;;;;10.23;5.40;;;;;;;11.07;100.00;61989.50;5114199;28;20203;-71
2022/04/27 03:53:45;;;;;;;13.53;5.43;;;;;;;11.17;100.00;61997.16;5113991;28;20202;-72
2022/04/27 03:56:12;;;;;;;8.23;5.23;;;;;;;11.18;100.00;62000.78;5114115;28;20195;-72
2022/04/27 03:58:39;;;;;;;11.00;4.90;;;;;;;11.19;100.00;61996.22;5113878;28;20255;-72
2022/04/27 04:01:06;;;;;;;6.27;4.40;;;;;;;11.40;100.00;62018.72;5114735;28;20734;-71
2022/04/27 04:03:33;;;;;;;12.57;6.20;;;;;;;11.01;100.00;61978.00;5115812;28;20679;-72
2022/04/27 04:06:01;;;;;;;12.03;5.77;;;;;;;11.48;100.00;62029.84;5113526;28;20195;-72
2022/04/27 04:08:28;;;;;;;13.40;6.87;;;;;;;11.19;100.00;61996.22;5114010;28;20206;-72
2022/04/27 04:10:55;;;;;;;11.00;7.13;;;;;;;11.15;100.00;61989.38;5113616;28;20231;-70
2022/04/27 04:13:22;;;;;;;12.70;7.50;;;;;;;11.47;100.00;62026.75;5113978;28;20199;-74
2022/04/27 04:15:49;;;;;;;10.00;6.00;;;;;;;11.67;100.00;62053.31;5114315;28;20319;-73
2022/04/27 04:18:16;;;;;;;8.57;5.17;;;;;;;11.66;100.00;62046.63;5113747;28;20217;-73
2022/04/27 04:20:45;;;;;;;19.60;6.70;;;;;;;11.96;100.00;62078.81;5113394;28;20770;-72
2022/04/27 04:23:13;;;;;;;14.43;7.73;;;;;;;12.28;100.00;62113.13;5113597;28;20199;-72
2022/04/27 04:28:34;;;;;;;8.07;4.80;;;;;;;12.43;100.00;62129.25;5113598;28;20206;-72
2022/04/27 04:31:02;;;;;;;15.43;5.10;;;;;;;12.55;100.00;62141.56;5113035;28;20744;-73
2022/04/27 04:33:29;;;;;;;6.57;4.23;;;;;;;11.93;100.00;62075.06;5113550;28;20248;-72
2022/04/27 04:35:56;;;;;;;11.20;4.43;;;;;;;12.58;100.00;62147.88;5112982;28;20203;-73
2022/04/27 04:38:24;;;;;;;9.10;4.27;;;;;;;12.61;100.00;62150.56;5113210;27;20195;-72
2022/04/27 04:40:52;;;;;;;11.50;4.47;;;;;;;12.69;100.00;62157.16;5113091;28;20662;-72
2022/04/27 04:43:19;;;;;;;9.90;4.57;;;;;;;12.61;100.00;62153.13;5112848;28;20665;-72
2022/04/27 04:45:46;;;;;;;7.67;4.17;;;;;;;12.94;100.00;62183.44;5112640;28;20244;-73
2022/04/27 04:48:13;;;;;;;5.00;3.90;;;;;;;12.92;100.00;62175.66;5112882;28;20275;-74
2022/04/27 04:50:40;;;;;;;6.57;3.80;;;;;;;13.10;100.00;62200.63;5112596;28;20666;-71
2022/04/27 04:53:08;;;;;;;10.33;4.00;;;;;;;13.05;100.00;62195.28;5112922;28;20199;-73
2022/04/27 04:55:36;;;;;;;11.60;3.67;;;;;;;13.06;100.00;62195.81;5112701;28;20202;-72
2022/04/27 04:58:03;;;;;;;7.17;3.33;;;;;;;13.34;100.00;62231.00;5112719;28;20285;-72
2022/04/27 05:00:30;;;;;;;12.90;4.27;;;;;;;13.34;100.00;62225.91;5112631;28;20353;-72
2022/04/27 05:02:56;;;;;;;6.43;3.33;;;;;;;13.62;100.00;62253.41;5112526;28;20199;-73
2022/04/27 05:05:24;;;;;;;10.93;3.80;;;;;;;13.74;100.00;62265.78;5112365;28;20277;-72
2022/04/27 05:07:50;;;;;;;10.10;3.43;;;;;;;13.65;100.00;62264.31;5112369;28;20248;-73
2022/04/27 05:10:17;;;;;;;12.33;3.60;;;;;;;13.49;100.00;62242.53;5112131;28;20230;-71
2022/04/27 05:12:45;;;;;;;6.17;3.43;;;;;;;13.81;100.00;62275.84;5112492;28;20198;-71
2022/04/27 05:15:13;;;;;;;9.47;3.83;;;;;;;14.00;100.00;62291.16;5112411;28;20203;-72
2022/04/27 05:17:41;;;;;;;3.70;3.20;;;;;;;14.09;100.00;62306.47;5112171;28;20282;-72
2022/04/27 05:20:10;;;;;;;9.80;3.53;;;;;;;14.39;100.00;62336.19;5112463;28;20251;-71
2022/04/27 05:22:39;;;;;;;7.10;3.50;;;;;;;14.14;100.00;62311.31;5112134;28;20226;-73
2022/04/27 05:25:08;;;;;;;7.20;3.17;;;;;;;14.60;100.00;62360.28;5112150;28;20206;-72
2022/04/27 05:27:35;;;;;;;6.70;2.97;;;;;;;14.69;100.00;62369.97;5112130;28;20230;-71
2022/04/27 05:32:49;;;;;;;9.93;3.50;;;;;;;14.94;100.00;62396.84;5112076;28;20233;-72
2022/04/27 05:35:16;;;;;;;10.47;3.60;;;;;;;14.73;100.00;62374.25;5112032;28;20260;-72
2022/04/27 05:37:43;;;;;;;6.97;3.60;;;;;;;14.78;100.00;62377.06;5112139;28;20199;-72
2022/04/27 05:40:11;;;;;;;10.57;3.93;;;;;;;14.94;100.00;62397.38;5111971;28;20271;-71
2022/04/27 05:42:37;;;;;;;9.07;3.20;;;;;;;15.12;100.00;62418.78;5112000;28;20198;-72
2022/04/27 05:45:08;;;;;;;7.13;3.10;;;;;;;15.44;100.00;62447.56;5111808;28;20206;-72
2022/04/27 05:47:35;;;;;;;5.97;2.83;;;;;;;15.33;100.00;62440.84;5111903;28;20682;-72
2022/04/27 05:50:04;;;;;;;4.73;2.70;;;;;;;15.81;100.00;62492.53;5112045;28;20234;-72
2022/04/27 05:52:31;;;;;;;6.73;3.20;;;;;;;15.82;100.00;62488.47;5112115;28;20586;-73
2022/04/27 05:54:58;;;;;;;6.87;3.03;;;;;;;16.04;100.00;62510.13;5111684;28;20202;-73
2022/04/27 05:57:25;;;;;;;9.07;2.87;;;;;;;16.21;100.00;62527.91;5111595;28;20199;-72
2022/04/27 05:59:53;;;;;;;10.67;3.67;;;;;;;16.13;100.00;62523.88;5111922;28;20198;-72
2022/04/27 06:02:21;;;;;;;12.67;3.50;;;;;;;16.19;100.00;62527.78;5111738;28;20730;-71
2022/04/27 06:04:47;;;;;;;11.20;3.70;;;;;;;16.47;100.00;62560.50;5111457;28;20205;-72
2022/04/27 06:07:14;;;;;;;3.77;2.80;;;;;;;16.64;100.00;62576.81;5111632;28;20199;-71
2022/04/27 06:09:41;;;;;;;8.63;2.90;;;;;;;16.51;100.00;62564.84;5111440;28;20203;-72
2022/04/27 06:12:08;;;;;;;10.83;3.50;;;;;;;16.87;100.00;62606.75;5111288;28;20593;-73
2022/04/27 06:14:36;;;;;;;4.00;2.87;;;;;;;16.96;100.00;62610.25;5111663;28;20195;-72
2022/04/27 06:17:05;;;;;;;8.43;3.40;;;;;;;17.31;100.00;62650.53;5111484;28;20745;-72
2022/04/27 06:19:33;;;;;;;14.83;3.30;;;;;;;17.57;100.00;62679.13;5111668;28;20554;-73
2022/04/27 06:22:00;;;;;;;7.87;3.53;;;;;;;17.75;100.00;62698.00;5111304;28;20219;-72
2022/04/27 06:24:29;;;;;;;7.40;3.20;;;;;;;17.42;100.00;62657.25;5111888;28;20262;-73
2022/04/27 06:26:56;;;;;;;7.17;3.40;;;;;;;16.69;100.00;62584.25;5111421;28;20680;-73
2022/04/27 06:29:23;;;;;;;8.00;3.87;;;;;;;17.87;100.00;62710.44;5114182;28;20297;-72
2022/04/27 06:31:50;;;;;;;7.07;4.00;;;;;;;18.18;100.00;62744.41;5115121;28;20587;-73
2022/04/27 06:34:17;;;;;;;7.60;4.10;;;;;;;17.85;100.00;62705.69;5115358;28;20662;-73
2022/04/27 06:36:46;;;;;;;7.90;3.50;;;;;;;18.31;100.00;62761.03;5115626;28;20194;-71
2022/04/27 06:39:15;;;;;;;6.83;3.83;;;;;;;18.31;100.00;62755.34;5115584;28;20306;-73
2022/04/27 06:41:42;;;;;;;8.30;3.67;;;;;;;18.18;100.00;62744.41;5115409;28;20244;-73
2022/04/27 06:44:09;;;;;;;9.57;3.87;;;;;;;17.76;100.00;62698.56;5115113;28;20761;-72
2022/04/27 06:46:36;;;;;;;5.73;4.00;;;;;;;17.59;100.00;62678.72;5115283;28;20255;-73
2022/04/27 06:49:03;;;;;;;9.60;4.40;;;;;;;17.64;100.00;62686.69;5115258;28;20673;-73
2022/04/27 06:51:30;;;;;;;15.90;4.23;;;;;;;18.16;100.00;62742.25;5114925;28;20218;-74
2022/04/27 06:53:58;;;;;;;13.80;4.17;;;;;;;18.69;100.00;62801.53;5115083;28;20198;-72
2022/04/27 06:56:25;;;;;;;10.87;3.73;;;;;;;18.88;100.00;62819.47;5114985;28;20248;-74
2022/04/27 06:58:53;;;;;;;23.77;5.37;;;;;;;18.72;100.00;62802.19;5114980;28;20633;-72
2022/04/27 07:01:21;;;;;;;10.73;4.23;;;;;;;18.71;100.00;62801.13;5115034;28;20203;-73
2022/04/27 07:03:53;;;;;;;11.13;3.97;;;;;;;19.01;100.00;62838.13;5114858;28;20673;-71
2022/04/27 07:06:20;;;;;;;7.80;3.90;;;;;;;19.08;100.00;62841.06;5114571;28;20238;-72
2022/04/27 07:08:47;;;;;;;19.00;4.90;;;;;;;18.75;100.00;62800.28;5114873;28;20238;-72
2022/04/27 07:11:16;;;;;;;9.10;3.87;;;;;;;19.34;100.00;62863.47;5114659;28;20721;-72
2022/04/27 07:13:42;;;;;;;17.07;4.63;;;;;;;19.25;100.00;62859.44;5114549;28;20199;-74
2022/04/27 07:16:09;;;;;;;10.13;3.63;;;;;;;19.16;100.00;62852.28;5114507;28;20202;-73
2022/04/27 07:18:36;;;;;;;8.10;3.83;;;;;;;19.63;100.00;62899.97;5114314;28;20221;-72
2022/04/27 07:21:05;;;;;;;8.73;3.50;;;;;;;19.40;100.00;62874.59;5114533;28;20227;-73
2022/04/27 07:23:32;;;;;;;7.50;3.60;;;;;;;19.40;100.00;62874.59;5114417;28;20191;-72
2022/04/27 07:25:59;;;;;;;7.23;3.73;;;;;;;19.66;100.00;62902.69;5114533;28;20203;-72
2022/04/27 07:28:27;;;;;;;7.37;4.03;;;;;;;19.93;100.00;62931.84;5114349;28;20211;-72
2022/04/27 07:30:54;;;;;;;14.93;4.30;;;;;;;20.13;100.00;62954.00;5113844;28;20252;-72
2022/04/27 07:33:23;;;;;;;5.80;3.60;;;;;;;19.91;100.00;62929.69;5114485;28;20519;-71
2022/04/27 07:35:50;;;;;;;7.30;3.83;;;;;;;20.28;100.00;62969.72;5114529;28;20203;-72
2022/04/27 07:38:17;;;;;;;12.97;4.30;;;;;;;20.41;100.00;62983.75;5114223;28;20259;-71
2022/04/27 07:40:44;;;;;;;16.23;4.77;;;;;;;20.51;100.00;62994.56;5113011;28;20206;-73
2022/04/27 07:43:11;;;;;;;12.03;3.93;;;;;;;20.10;100.00;62950.22;5114218;28;20252;-72
2022/04/27 07:45:39;;;;;;;9.53;4.40;;;;;;;20.65;100.00;63009.19;5113916;28;20203;-74
2022/04/27 07:48:06;;;;;;;9.47;4.00;;;;;;;20.48;100.00;62996.53;5113877;28;20587;-73
2022/04/27 07:50:33;;;;;;;9.67;4.50;;;;;;;20.16;100.00;62956.72;5114265;28;20219;-72
2022/04/27 07:53:00;;;;;;;18.40;5.53;;;;;;;20.38;100.00;62980.53;5113820;28;20316;-73
2022/04/27 07:55:29;;;;;;;14.33;3.80;;;;;;;20.88;100.00;63036.66;5113952;28;20191;-72
2022/04/27 07:57:56;;;;;;;9.17;4.10;;;;;;;21.05;100.00;63046.75;5113762;28;20195;-73
2022/04/27 08:00:23;;;;;;;11.97;4.17;;;;;;;21.13;100.00;63060.59;5114272;28;20244;-72
2022/04/27 08:02:51;;;;;;;17.67;5.63;;;;;;;20.82;100.00;63028.13;5113678;28;20191;-74
2022/04/27 08:05:18;;;;;;;4.87;3.57;;;;;;;21.32;100.00;63081.69;5113929;28;20199;-72
2022/04/27 08:07:46;;;;;;;133.93;10.77;;;;;;;21.04;100.00;63051.41;5113812;28;20256;-73
2022/04/27 08:10:15;;;;;;;6.20;3.73;;;;;;;21.53;100.00;63103.91;5113100;28;20203;-72
2022/04/27 08:12:46;;;;;;;8.40;3.80;;;;;;;21.92;100.00;63146.13;5113526;28;20199;-72
2022/04/27 08:15:13;;;;;;;7.57;4.30;;;;;;;21.98;100.00;63152.06;5113768;28;20203;-72
2022/04/27 08:17:52;;;;;;;7.17;4.07;;;;;;;22.20;100.00;63176.44;5113586;28;20256;-72
2022/04/27 08:23:07;;;;;;;11.90;4.90;;;;;;;22.53;100.00;63211.66;5113357;28;20738;-73
2022/04/27 08:25:35;;;;;;;12.17;3.80;;;;;;;22.24;100.00;63180.78;5113326;28;20205;-72
2022/04/27 08:28:05;;;;;;;8.73;4.13;;;;;;;23.13;100.00;63276.16;5113150;28;20218;-71
2022/04/27 08:30:32;;;;;;;7.37;3.93;;;;;;;22.80;100.00;63240.41;5113096;28;20198;-73
2022/04/27 08:33:00;;;;;;;8.13;4.13;;;;;;;22.63;100.00;63225.66;5113008;28;20287;-72
2022/04/27 08:35:27;;;;;;;7.63;4.30;;;;;;;22.88;100.00;63251.69;5113103;28;20199;-73
2022/04/27 08:37:55;;;;;;;11.23;3.83;;;;;;;23.44;100.00;63310.34;5112910;28;20199;-72
2022/04/27 08:40:22;;;;;;;8.63;3.63;;;;;;;22.99;100.00;63264.13;5113392;28;20199;-72
2022/04/27 08:42:49;;;;;;;7.80;3.87;;;;;;;22.14;100.00;63169.97;5112839;28;20199;-72
2022/04/27 08:45:17;;;;;;;12.80;5.57;;;;;;;22.60;100.00;63217.22;5112753;28;20230;-72
2022/04/27 08:47:44;;;;;;;14.07;3.60;;;;;;;22.52;100.00;63211.13;5113197;28;20226;-73
2022/04/27 08:50:13;;;;;;;8.87;3.80;;;;;;;22.28;100.00;63185.13;5112600;28;20227;-72
2022/04/27 08:52:41;;;;;;;12.50;3.93;;;;;;;22.85;100.00;63245.81;5112838;28;20661;-73
2022/04/27 08:55:11;;;;;;;11.40;3.60;;;;;;;23.08;100.00;63268.69;5115959;28;20244;-71
2022/04/27 08:57:39;;;;;;;8.90;3.57;;;;;;;23.35;100.00;63300.03;5113107;28;20278;-73
2022/04/27 09:00:08;;;;;;;6.63;4.17;;;;;;;23.68;100.00;63335.84;5112648;28;20256;-73
2022/04/27 09:02:35;;;;;;;10.53;5.00;;;;;;;23.82;100.00;63351.03;5112512;28;20199;-73
2022/04/27 09:05:10;;;;;;;11.47;4.10;;;;;;;23.99;100.00;63366.84;5112743;28;20264;-72
2022/04/27 09:07:39;;;;;;;6.83;3.93;;;;;;;24.20;100.00;63397.47;5112519;28;20217;-72
2022/04/27 09:10:08;;;;;;;9.17;3.67;;;;;;;24.20;100.00;63392.28;5112263;28;20657;-71
2022/04/27 09:12:38;;;;;;;9.87;4.50;;;;;;;24.46;100.00;63416.78;5112495;28;20234;-73
2022/04/27 09:15:07;;;;;;;12.40;3.93;;;;;;;23.93;100.00;63360.34;5112216;28;20259;-72
2022/04/27 09:23:05;;;;;;;6.03;3.53;;;;;;;24.17;100.00;63386.41;5112186;28;20339;-73
2022/04/27 09:25:33;;;;;;;8.63;3.60;;;;;;;23.85;100.00;63349.06;5111894;28;20665;-73
2022/04/27 09:28:03;;;;;;;8.57;3.70;;;;;;;23.88;100.00;63357.53;5111812;28;20204;-73
2022/04/27 09:30:33;;;;;;;15.37;3.97;;;;;;;23.91;100.00;63355.56;5112310;28;20195;-73
2022/04/27 09:33:00;;;;;;;8.77;4.17;;;;;;;23.37;100.00;63302.75;5111997;28;20319;-72
2022/04/27 09:35:32;;;;;;;14.73;4.40;;;;;;;24.04;100.00;63374.91;5111977;28;20200;-73
2022/04/27 09:38:14;;;;;;;11.47;3.50;;;;;;;24.42;100.00;63415.59;5111718;28;20209;-71
2022/04/27 09:40:46;;;;;;;18.17;4.30;;;;;;;24.20;100.00;63387.06;5112194;28;20203;-73
2022/04/27 09:43:14;;;;;;;5.63;3.77;;;;;;;24.91;100.00;63463.06;5111901;28;20201;-73
2022/04/27 09:45:42;;;;;;;13.37;4.20;;;;;;;25.21;100.00;63500.84;5111784;28;20221;-73
2022/04/27 09:48:11;;;;;;;14.43;4.07;;;;;;;24.36;100.00;63409.09;5111701;28;20256;-72
2022/04/27 09:50:48;;;;;;;13.00;4.33;;;;;;;24.76;100.00;63446.75;5111559;28;20207;-72
2022/04/27 09:53:17;;;;;;;8.67;3.73;;;;;;;24.93;100.00;63470.97;5110236;28;20734;-72
2022/04/27 09:55:49;;;;;;;6.13;3.30;;;;;;;25.10;100.00;63491.50;5111484;28;20733;-74
2022/04/27 09:58:18;;;;;;;11.80;3.87;;;;;;;24.91;100.00;63468.28;5111503;28;20673;-73
2022/04/27 10:00:48;;;;;;;13.63;4.97;;;;;;;25.14;100.00;63495.84;5111529;28;20199;-73
2022/04/27 10:03:18;;;;;;;8.97;3.73;;;;;;;25.08;100.00;63482.06;5110804;28;20679;-73
2022/04/27 10:05:46;;;;;;;11.00;3.60;;;;;;;25.32;100.00;63512.78;5111211;28;20201;-73
2022/04/27 10:08:13;;;;;;;12.80;3.80;;;;;;;25.88;100.00;63573.09;5111233;28;20643;-73
2022/04/27 10:10:45;;;;;;;7.10;3.50;;;;;;;25.95;100.00;63581.25;5111545;28;20254;-73
2022/04/27 10:13:14;;;;;;;10.20;4.03;;;;;;;25.84;100.00;63566.69;5111646;28;20256;-73
2022/04/27 10:15:44;;;;;;;11.63;3.67;;;;;;;25.49;100.00;63530.72;5111389;28;20207;-73
2022/04/27 10:18:14;;;;;;;10.87;3.13;;;;;;;25.14;100.00;63493.78;5111404;28;20194;-72
2022/04/27 10:20:41;;;;;;;7.60;3.33;;;;;;;25.62;100.00;63544.84;5111684;28;20256;-73
2022/04/27 10:23:24;;;;;;;10.50;3.47;;;;;;;25.54;100.00;63530.94;5111513;28;20191;-74
2022/04/27 10:26:10;;;;;;;6.10;2.57;;;;;;;26.34;100.00;63625.19;5111237;28;20190;-72
2022/04/27 10:28:40;;;;;;;8.67;3.47;;;;;;;26.52;100.00;63636.91;5111357;28;20198;-72
2022/04/27 10:31:08;;;;;;;7.13;3.20;;;;;;;26.24;100.00;63609.09;5111245;28;20345;-73
2022/04/27 10:33:50;;;;;;;6.37;2.80;;;;;;;26.25;100.00;63615.94;5111813;28;20199;-72
2022/04/27 10:36:24;;;;;;;7.97;2.90;;;;;;;26.90;100.00;63688.19;5111638;28;20195;-72
2022/04/27 10:39:25;;;;;;;7.47;3.53;;;;;;;25.92;100.00;63578.00;5111119;28;20547;-72
2022/04/27 10:42:25;;;;;;;9.13;3.10;;;;;;;24.77;100.00;63451.00;5028761;28;20201;-73
2022/04/27 10:45:12;;;;;;;15.17;3.87;;;;;;;25.25;100.00;63505.19;5028462;28;20243;-72
2022/04/27 10:47:43;;;;;;;4.90;2.87;;;;;;;25.17;100.00;63496.50;5096199;28;20208;-72
2022/04/27 10:50:35;;;;;;;10.37;3.37;;;;;;;24.91;100.00;63468.28;5110256;28;20263;-72
2022/04/27 10:53:21;;;;;;;8.67;2.93;;;;;;;25.46;100.00;63528.00;5111152;28;20244;-72
2022/04/27 10:55:53;;;;;;;11.80;3.83;;;;;;;26.02;100.00;63587.78;5111552;28;20256;-72
2022/04/27 10:58:28;;;;;;;8.47;3.30;;;;;;;25.91;100.00;63571.69;5111423;28;20750;-72
2022/04/27 11:01:30;;;;;;;7.23;3.27;;;;;;;25.94;100.00;63580.16;5111132;28;20198;-71
2022/04/27 11:04:11;;;;;;;13.50;3.90;;;;;;;26.51;100.00;63638.44;5111363;28;20277;-73
2022/04/27 11:07:14;;;;;;;8.40;2.83;;;;;;;26.63;100.00;63651.50;5111156;28;20215;-72
2022/04/27 11:10:09;;;;;;;8.67;2.83;;;;;;;26.68;100.00;63659.56;5110973;28;20725;-72
2022/04/27 11:12:37;;;;;;;5.63;2.40;;;;;;;27.07;100.00;63701.97;5108268;28;20226;-72
2022/04/27 11:15:05;;;;;;;7.77;2.77;;;;;;;27.64;100.00;63762.94;5113773;28;20761;-72
2022/04/27 11:17:34;;;;;;;9.67;3.00;;;;;;;27.55;100.00;63754.22;5114482;28;20248;-71
2022/04/27 11:20:02;;;;;;;5.70;2.67;;;;;;;27.61;100.00;63759.66;5114427;28;20291;-72
2022/04/27 11:22:37;;;;;;;8.87;3.73;;;;;;;27.09;100.00;63698.91;5114154;28;20214;-72
2022/04/27 11:25:07;;;;;;;14.00;3.10;;;;;;;26.87;100.00;63680.22;5114451;28;20195;-72
2022/04/27 11:27:35;;;;;;;5.33;2.87;;;;;;;26.92;100.00;63679.88;5114664;28;20247;-72
2022/04/27 11:30:02;;;;;;;7.70;3.10;;;;;;;27.01;100.00;63698.06;5114426;28;20202;-73
2022/04/27 11:32:30;;;;;;;5.33;2.83;;;;;;;27.46;100.00;63743.88;5114371;28;20280;-73
2022/04/27 11:35:00;;;;;;;8.50;3.03;;;;;;;26.77;97.72;63664.13;5114230;28;20229;-72
2022/04/27 11:37:27;;;;;;;6.80;2.60;;;;;;;27.38;92.49;63735.72;5114658;28;20202;-72
2022/04/27 11:39:54;;;;;;;6.30;2.60;;;;;;;27.44;95.42;63742.25;5114120;28;20659;-72
2022/04/27 11:42:21;;;;;;;5.33;2.53;;;;;;;27.34;97.43;63731.38;5113215;28;20203;-71
2022/04/27 11:44:52;;;;;;;10.50;3.87;;;;;;;26.37;89.91;63625.84;5114184;28;20597;-73
2022/04/27 11:47:27;;;;;;;6.30;2.93;;;;;;;26.18;93.49;63603.09;5114055;28;20714;-72
2022/04/27 11:49:55;;;;;;;10.50;2.80;;;;;;;25.87;100.00;63572.56;5114413;28;20196;-72